This is the latest recevied weather packets stored in our database for station/object KD7CTY. If no packets are shown the sender has not sent any weather packets the latest 10 day(s).
| Time | Temp. | Humidity | Pressure | Rain* | Wind** | Luminosity | Snow |
|---|---|---|---|---|---|---|---|
| 1777484196 | 13.89° C | 75% | 1023.9 hPa | 0 mm | - | 747 W/m² | - |
| 1777483892 | 13.89° C | 74% | 1024.1 hPa | 0 mm | - | 744 W/m² | - |
| 1777483588 | 13.33° C | 77% | 1023.8 hPa | 0 mm | - | 743 W/m² | - |
| 1777483288 | 13.89° C | 75% | 1024.1 hPa | 0 mm | - | 730 W/m² | - |
| 1777482985 | 13.33° C | 77% | 1024.4 hPa | 0 mm | - | 697 W/m² | - |
| 1777482682 | 13.33° C | 76% | 1024.1 hPa | 0 mm | - | 668 W/m² | - |
| 1777482378 | 12.78° C | 79% | 1024 hPa | 0 mm | - | 636 W/m² | - |
| 1777482076 | 12.78° C | 78% | 1024.2 hPa | 0 mm | - | 620 W/m² | - |
| 1777481774 | 12.22° C | 79% | 1024.2 hPa | 0 mm | - | 609 W/m² | - |
| 1777481471 | 12.78° C | 79% | 1024.2 hPa | 0 mm | - | 606 W/m² | - |
| 1777481167 | 12.22° C | 80% | 1024.2 hPa | 0 mm | - | 580 W/m² | - |
| 1777480863 | 12.22° C | 80% | 1024.4 hPa | 0 mm | - | 565 W/m² | - |
| 1777480560 | 11.67° C | 81% | 1024.3 hPa | 0 mm | - | 534 W/m² | - |
| 1777480257 | 12.22° C | 80% | 1024.7 hPa | 0 mm | - | 498 W/m² | - |
| 1777479953 | 11.67° C | 83% | 1024.3 hPa | 0 mm | - | 464 W/m² | - |
| 1777479649 | 11.67° C | 84% | 1024.3 hPa | 0 mm | - | 899 W/m² | - |
| 1777479348 | 11.11° C | 85% | 1024.4 hPa | 0 mm | - | 722 W/m² | - |
| 1777479043 | 11.11° C | 84% | 1024.7 hPa | 0 mm | - | 189 W/m² | - |
| 1777478741 | 10.56° C | 86% | 1024.7 hPa | 0 mm | - | 163 W/m² | - |
| 1777478437 | 10° C | 88% | 1024.7 hPa | 0 mm | - | 147 W/m² | - |
| 1777478133 | 10° C | 89% | 1024.7 hPa | 0 mm | - | 140 W/m² | - |
| 1777477830 | 10.56° C | 88% | 1024.7 hPa | 0 mm | - | 134 W/m² | - |
| 1777477526 | 10° C | 89% | 1024.7 hPa | 0 mm | - | 127 W/m² | - |
| 1777477223 | 10° C | 89% | 1024.8 hPa | 0 mm | - | 276 W/m² | - |
| 1777476919 | 9.44° C | 91% | 1024.9 hPa | 0 mm | - | 153 W/m² | - |
* Rain latest hour (hover to see other rain measurements)
** Current wind speed in m/s (hover to see current wind gust speed)